Time;durP1;ratioP1;P1;durP2;ratioP2;P2;SDS_P1;SDS_P2;PMS_P1;PMS_P2;Temp;Humidity;BMP_temperature;BMP_pressure;BME280_temperature;BME280_humidity;BME280_pressure;Samples;Min_cycle;Max_cycle;Signal;HPM_P1;HPM_P2
2022/12/03 00:00:32;;;;;;;22.05;12.02;;;;;;;;;;4982075;28;20049;-77
2022/12/03 00:02:58;;;;;;;21.83;14.02;;;;;;;;;;4977841;28;20067;-77
2022/12/03 00:05:24;;;;;;;20.92;11.77;;;;;;;;;;4950679;28;20046;-76
2022/12/03 00:07:50;;;;;;;30.27;15.75;;;;;;;;;;4979091;28;20064;-77
2022/12/03 00:10:16;;;;;;;19.48;11.30;;;;;;;;;;4964533;28;20042;-76
2022/12/03 00:12:42;;;;;;;17.20;11.98;;;;;;;;;;4980866;28;20046;-77
2022/12/03 00:15:08;;;;;;;21.35;12.35;;;;;;;;;;4977251;28;20048;-77
2022/12/03 00:17:34;;;;;;;20.90;12.85;;;;;;;;;;4980412;28;20044;-77
2022/12/03 00:20:00;;;;;;;35.03;17.95;;;;;;;;;;4950163;28;20041;-78
2022/12/03 00:22:28;;;;;;;10.55;9.30;;;;;;;;;;5000784;28;20048;-77
2022/12/03 00:24:55;;;;;;;21.05;10.73;;;;;;;;;;5014338;28;20588;-77
2022/12/03 00:27:24;;;;;;;32.55;16.73;;;;;;;;;;5000693;28;20114;-77
2022/12/03 00:29:50;;;;;;;25.65;12.68;;;;;;;;;;4983241;28;20076;-79
2022/12/03 00:32:17;;;;;;;39.65;18.95;;;;;;;;;;5000737;28;20104;-78
2022/12/03 00:34:43;;;;;;;21.27;13.98;;;;;;;;;;4965945;28;20129;-78
2022/12/03 00:37:09;;;;;;;20.35;10.45;;;;;;;;;;4999271;28;20052;-78
2022/12/03 00:39:36;;;;;;;20.45;10.73;;;;;;;;;;4984949;28;20612;-78
2022/12/03 00:42:02;;;;;;;24.55;14.30;;;;;;;;;;4979979;28;20045;-77
2022/12/03 00:44:28;;;;;;;25.45;15.32;;;;;;;;;;4984842;28;20046;-78
2022/12/03 00:46:54;;;;;;;42.05;21.17;;;;;;;;;;5000854;28;20053;-78
2022/12/03 00:49:20;;;;;;;13.43;10.02;;;;;;;;;;4987949;28;20056;-77
2022/12/03 00:51:46;;;;;;;17.95;12.60;;;;;;;;;;5008036;28;20065;-78
2022/12/03 00:54:12;;;;;;;19.05;13.07;;;;;;;;;;5003748;28;20033;-78
2022/12/03 00:56:39;;;;;;;28.38;15.85;;;;;;;;;;5016374;28;20096;-79
2022/12/03 00:59:05;;;;;;;16.02;10.00;;;;;;;;;;5034749;28;20072;-78
2022/12/03 01:01:31;;;;;;;19.65;10.65;;;;;;;;;;5004621;28;20113;-77
2022/12/03 01:04:03;;;;;;;23.30;13.73;;;;;;;;;;4992177;28;20045;-77
2022/12/03 01:06:29;;;;;;;17.52;8.95;;;;;;;;;;5000832;28;20053;-78
2022/12/03 01:08:55;;;;;;;31.05;16.73;;;;;;;;;;5015690;28;20047;-78
2022/12/03 01:11:36;;;;;;;15.15;9.98;;;;;;;;;;5004974;28;20109;-78
2022/12/03 01:14:03;;;;;;;16.80;11.48;;;;;;;;;;5006968;28;20052;-78
2022/12/03 01:16:29;;;;;;;19.73;10.88;;;;;;;;;;5020889;28;20057;-79
2022/12/03 01:18:59;;;;;;;13.48;10.13;;;;;;;;;;5003223;28;20138;-79
2022/12/03 01:21:25;;;;;;;11.73;9.73;;;;;;;;;;5002790;28;20052;-79
2022/12/03 01:23:51;;;;;;;21.65;13.65;;;;;;;;;;5001257;28;20040;-79
2022/12/03 01:26:17;;;;;;;14.85;10.48;;;;;;;;;;4983899;28;20053;-79
2022/12/03 01:28:43;;;;;;;33.58;17.90;;;;;;;;;;4998811;28;20041;-77
2022/12/03 01:33:56;;;;;;;20.10;12.43;;;;;;;;;;5003116;28;20087;-79
2022/12/03 01:36:22;;;;;;;16.25;10.43;;;;;;;;;;4984050;28;20048;-78
2022/12/03 01:38:48;;;;;;;10.80;8.75;;;;;;;;;;4982031;28;20099;-79
2022/12/03 01:41:18;;;;;;;8.52;7.72;;;;;;;;;;4998450;28;20429;-78
2022/12/03 01:43:44;;;;;;;29.70;16.38;;;;;;;;;;4998094;28;20410;-77
2022/12/03 01:46:11;;;;;;;18.15;10.23;;;;;;;;;;4982197;28;20485;-78
2022/12/03 01:48:45;;;;;;;20.77;14.60;;;;;;;;;;5014524;28;20044;-79
2022/12/03 01:51:12;;;;;;;11.18;9.25;;;;;;;;;;4981691;28;20103;-78
2022/12/03 01:53:39;;;;;;;27.52;14.93;;;;;;;;;;4996909;28;20504;-77
2022/12/03 01:56:12;;;;;;;24.02;14.30;;;;;;;;;;4999632;28;20586;-79
2022/12/03 01:58:39;;;;;;;18.92;10.75;;;;;;;;;;4992851;28;20595;-78
2022/12/03 02:01:15;;;;;;;16.80;10.30;;;;;;;;;;4997150;28;20041;-78
2022/12/03 02:03:42;;;;;;;18.60;11.48;;;;;;;;;;4981374;28;20235;-78
2022/12/03 02:06:09;;;;;;;10.60;7.75;;;;;;;;;;4995986;28;20052;-78
2022/12/03 02:08:36;;;;;;;19.13;12.13;;;;;;;;;;4997327;28;20037;-77
2022/12/03 02:11:03;;;;;;;28.33;12.98;;;;;;;;;;4997120;28;20731;-76
2022/12/03 02:13:50;;;;;;;12.23;8.82;;;;;;;;;;5003018;28;20044;-77
2022/12/03 02:16:16;;;;;;;21.63;13.23;;;;;;;;;;4997223;28;20100;-77
2022/12/03 02:18:42;;;;;;;17.40;11.90;;;;;;;;;;5006825;28;20214;-77
2022/12/03 02:21:12;;;;;;;9.80;8.75;;;;;;;;;;4980605;28;20564;-77
2022/12/03 02:23:56;;;;;;;18.98;12.75;;;;;;;;;;4997004;28;20052;-78
2022/12/03 02:26:23;;;;;;;29.73;13.07;;;;;;;;;;5013074;28;20075;-78
2022/12/03 02:28:49;;;;;;;26.00;15.43;;;;;;;;;;4980554;28;20037;-78
2022/12/03 02:31:21;;;;;;;13.88;9.77;;;;;;;;;;4982091;28;20049;-78
2022/12/03 02:33:48;;;;;;;21.60;13.75;;;;;;;;;;4996707;28;20037;-78
2022/12/03 02:36:18;;;;;;;22.48;14.43;;;;;;;;;;4981809;28;20045;-78
2022/12/03 02:38:50;;;;;;;12.43;10.63;;;;;;;;;;4982615;28;20034;-77
2022/12/03 02:42:33;;;;;;;27.55;15.55;;;;;;;;;;4986313;28;20591;-76
2022/12/03 02:44:02;;;;;;;9.77;7.72;;;;;;;;;;5028021;28;20037;-77
2022/12/03 02:46:34;;;;;;;17.27;9.63;;;;;;;;;;4999107;28;20049;-78
2022/12/03 02:49:08;;;;;;;18.65;10.88;;;;;;;;;;5030203;28;20041;-76
2022/12/03 02:52:02;;;;;;;17.95;11.00;;;;;;;;;;5004029;28;20083;-77
2022/12/03 02:54:28;;;;;;;35.63;21.10;;;;;;;;;;4996181;28;20053;-77
2022/12/03 02:56:54;;;;;;;24.50;11.77;;;;;;;;;;4991621;28;20045;-76
2022/12/03 02:59:27;;;;;;;31.33;16.63;;;;;;;;;;4998274;28;20033;-76
2022/12/03 03:01:55;;;;;;;24.25;14.68;;;;;;;;;;4996200;28;20084;-77
2022/12/03 03:04:23;;;;;;;11.18;8.65;;;;;;;;;;4995772;28;20461;-77
2022/12/03 03:06:53;;;;;;;;;;;;;;;;;;4997718;28;20087;-77
2022/12/03 03:09:20;;;;;;;12.50;9.82;;;;;;;;;;5012290;28;20456;-77
2022/12/03 03:11:46;;;;;;;29.92;16.92;;;;;;;;;;4980185;28;20460;-77
2022/12/03 03:14:12;;;;;;;16.35;11.02;;;;;;;;;;4994697;28;20046;-77
2022/12/03 03:16:39;;;;;;;19.90;12.68;;;;;;;;;;4979934;28;20076;-77
2022/12/03 03:19:10;;;;;;;13.50;10.38;;;;;;;;;;4988170;28;20066;-78
2022/12/03 03:21:36;;;;;;;32.30;20.35;;;;;;;;;;4936401;28;20541;-78
2022/12/03 03:24:03;;;;;;;11.75;8.65;;;;;;;;;;4956685;28;20601;-77
2022/12/03 03:26:29;;;;;;;15.13;10.50;;;;;;;;;;4952455;28;20053;-78
2022/12/03 03:28:56;;;;;;;11.63;9.88;;;;;;;;;;4960728;28;20136;-79
2022/12/03 03:31:22;;;;;;;28.40;17.80;;;;;;;;;;4960512;28;20038;-78
2022/12/03 03:33:49;;;;;;;19.73;11.93;;;;;;;;;;4944904;28;20041;-78
2022/12/03 03:36:15;;;;;;;26.20;15.02;;;;;;;;;;4960374;28;20037;-79
2022/12/03 03:38:48;;;;;;;13.70;9.13;;;;;;;;;;4978682;28;20046;-79
2022/12/03 03:41:14;;;;;;;25.25;14.85;;;;;;;;;;4957757;28;20077;-78
2022/12/03 03:43:41;;;;;;;30.77;19.38;;;;;;;;;;4960501;28;20070;-78
2022/12/03 03:46:07;;;;;;;34.75;15.60;;;;;;;;;;4941848;28;20067;-78
2022/12/03 03:48:33;;;;;;;37.03;20.48;;;;;;;;;;4960236;28;20064;-78
2022/12/03 03:51:02;;;;;;;28.25;16.10;;;;;;;;;;4944963;28;20038;-78
2022/12/03 03:53:28;;;;;;;11.65;9.63;;;;;;;;;;4944102;28;20145;-78
2022/12/03 03:55:54;;;;;;;17.55;10.10;;;;;;;;;;4960288;28;20465;-78
2022/12/03 03:58:20;;;;;;;46.80;25.38;;;;;;;;;;4957669;28;20046;-78
2022/12/03 04:00:46;;;;;;;27.83;18.88;;;;;;;;;;4960183;28;20061;-78
2022/12/03 04:03:21;;;;;;;18.33;9.85;;;;;;;;;;4947319;28;20135;-78
2022/12/03 04:05:52;;;;;;;15.15;8.55;;;;;;;;;;4961372;28;20041;-78
2022/12/03 04:08:25;;;;;;;14.50;8.65;;;;;;;;;;4960937;28;20050;-78
2022/12/03 04:13:35;;;;;;;32.63;18.65;;;;;;;;;;4962615;28;20056;-79
2022/12/03 04:16:07;;;;;;;31.80;17.38;;;;;;;;;;4964396;28;20046;-77
2022/12/03 04:18:42;;;;;;;22.77;14.50;;;;;;;;;;4966511;28;20054;-78
2022/12/03 04:24:03;;;;;;;16.05;11.05;;;;;;;;;;4967522;28;20041;-78
2022/12/03 04:29:17;;;;;;;10.95;9.02;;;;;;;;;;4966694;28;20041;-78
2022/12/03 04:37:12;;;;;;;25.48;15.50;;;;;;;;;;4966137;28;20081;-79
2022/12/03 04:39:41;;;;;;;30.45;14.40;;;;;;;;;;4947824;28;20073;-78
2022/12/03 04:42:08;;;;;;;15.63;9.93;;;;;;;;;;4963804;28;20144;-79
2022/12/03 04:44:37;;;;;;;47.55;25.98;;;;;;;;;;4947844;28;20046;-79
2022/12/03 04:47:13;;;;;;;32.95;17.40;;;;;;;;;;4948104;28;20076;-79
2022/12/03 04:49:45;;;;;;;9.80;8.80;;;;;;;;;;4964206;28;20033;-81
2022/12/03 04:52:11;;;;;;;16.13;11.23;;;;;;;;;;4948499;28;20041;-79
2022/12/03 04:54:38;;;;;;;13.73;9.30;;;;;;;;;;4972918;28;20140;-78
2022/12/03 04:57:04;;;;;;;23.23;11.40;;;;;;;;;;4974167;28;20045;-79
2022/12/03 04:59:30;;;;;;;19.30;12.38;;;;;;;;;;4974968;28;20050;-78
2022/12/03 05:02:00;;;;;;;25.25;15.50;;;;;;;;;;4981956;28;20054;-79
2022/12/03 05:04:51;;;;;;;20.70;13.18;;;;;;;;;;4970128;28;20042;-79
2022/12/03 05:07:17;;;;;;;28.15;15.73;;;;;;;;;;4962041;28;20481;-78
2022/12/03 05:09:43;;;;;;;15.32;10.48;;;;;;;;;;4948098;28;20034;-78
2022/12/03 05:12:10;;;;;;;19.90;12.02;;;;;;;;;;4978901;28;20116;-78
2022/12/03 05:14:36;;;;;;;12.13;9.75;;;;;;;;;;4963236;28;20041;-78
2022/12/03 05:17:02;;;;;;;20.25;9.45;;;;;;;;;;4963360;28;20045;-78
2022/12/03 05:22:13;;;;;;;17.63;11.63;;;;;;;;;;4971528;28;20049;-79
2022/12/03 05:24:39;;;;;;;33.92;17.88;;;;;;;;;;4956955;28;20033;-76
2022/12/03 05:27:07;;;;;;;20.98;13.45;;;;;;;;;;4967660;28;20061;-75
2022/12/03 05:29:54;;;;;;;11.10;7.30;;;;;;;;;;4944265;28;20669;-77
2022/12/03 05:32:25;;;;;;;;;;;;;;;;;;4964508;28;20046;-77
2022/12/03 05:34:51;;;;;;;15.55;10.18;;;;;;;;;;4972275;28;20306;-77
2022/12/03 05:37:17;;;;;;;29.75;17.13;;;;;;;;;;4972173;28;20596;-77
2022/12/03 05:39:50;;;;;;;15.60;10.68;;;;;;;;;;4963813;28;20050;-77
2022/12/03 05:45:01;;;;;;;20.13;11.35;;;;;;;;;;4965272;28;20137;-78
2022/12/03 05:47:30;;;;;;;25.13;14.65;;;;;;;;;;4953189;28;20053;-76
2022/12/03 05:49:57;;;;;;;17.80;10.00;;;;;;;;;;4946226;28;20506;-77
2022/12/03 05:52:23;;;;;;;20.90;13.48;;;;;;;;;;4945953;28;20408;-77
2022/12/03 05:54:49;;;;;;;11.20;7.13;;;;;;;;;;4962339;28;20042;-77
2022/12/03 05:57:15;;;;;;;14.90;9.98;;;;;;;;;;4961754;28;20053;-77
2022/12/03 05:59:42;;;;;;;9.32;8.00;;;;;;;;;;4946611;28;20038;-77
2022/12/03 06:02:10;;;;;;;30.65;13.45;;;;;;;;;;4962164;28;20061;-77
2022/12/03 06:04:46;;;;;;;16.65;11.02;;;;;;;;;;4964015;28;20545;-76
2022/12/03 06:10:06;;;;;;;14.05;11.45;;;;;;;;;;4972757;28;20074;-76
2022/12/03 06:12:32;;;;;;;33.47;15.60;;;;;;;;;;4965187;28;20130;-76
2022/12/03 06:14:58;;;;;;;10.30;8.45;;;;;;;;;;4959363;28;20128;-77
2022/12/03 06:17:25;;;;;;;24.88;10.80;;;;;;;;;;4957919;28;20056;-76
2022/12/03 06:19:51;;;;;;;36.47;17.90;;;;;;;;;;4955391;28;20077;-79
2022/12/03 06:22:43;;;;;;;38.63;18.88;;;;;;;;;;4970069;28;20116;-78
2022/12/03 06:25:09;;;;;;;14.23;9.38;;;;;;;;;;4984165;28;20045;-77
2022/12/03 06:27:35;;;;;;;40.28;20.45;;;;;;;;;;4964139;28;20055;-76
2022/12/03 06:30:09;;;;;;;32.90;15.07;;;;;;;;;;4979778;28;20422;-76
2022/12/03 06:32:36;;;;;;;29.33;17.10;;;;;;;;;;4964361;28;20119;-76
2022/12/03 06:35:02;;;;;;;14.70;8.75;;;;;;;;;;4979957;28;20099;-76
2022/12/03 06:37:29;;;;;;;59.58;31.10;;;;;;;;;;4980228;28;20531;-76
2022/12/03 06:39:55;;;;;;;40.50;19.15;;;;;;;;;;4998558;28;20038;-76
2022/12/03 06:42:22;;;;;;;27.52;15.10;;;;;;;;;;4996560;28;20045;-76
2022/12/03 06:44:51;;;;;;;32.53;16.20;;;;;;;;;;4980244;28;20384;-75
2022/12/03 06:47:22;;;;;;;;;;;;;;;;;;4977392;28;20211;-78
2022/12/03 06:49:50;;;;;;;28.85;13.75;;;;;;;;;;4984464;28;19960;-76
2022/12/03 06:52:25;;;;;;;7.18;6.10;;;;;;;;;;4973711;28;20273;-76
2022/12/03 06:54:52;;;;;;;31.95;16.23;;;;;;;;;;4970680;28;20419;-75
2022/12/03 06:57:23;;;;;;;28.52;13.68;;;;;;;;;;4974151;28;20116;-76
2022/12/03 06:59:50;;;;;;;21.02;13.13;;;;;;;;;;4988653;28;20074;-75
2022/12/03 07:02:16;;;;;;;24.67;13.95;;;;;;;;;;4956566;28;20053;-75
2022/12/03 07:05:08;;;;;;;45.78;19.85;;;;;;;;;;5008592;28;20030;-74
2022/12/03 07:07:38;;;;;;;22.02;13.40;;;;;;;;;;4973522;28;20053;-75
2022/12/03 07:10:04;;;;;;;24.52;12.63;;;;;;;;;;4971853;28;20585;-75
2022/12/03 07:12:31;;;;;;;22.42;13.18;;;;;;;;;;5007474;28;20037;-75
2022/12/03 07:14:58;;;;;;;25.98;14.77;;;;;;;;;;5009659;28;20045;-75
2022/12/03 07:17:24;;;;;;;23.70;11.57;;;;;;;;;;4957862;28;20065;-76
2022/12/03 07:19:53;;;;;;;32.72;16.63;;;;;;;;;;4997962;28;20045;-78
2022/12/03 07:22:19;;;;;;;41.83;18.13;;;;;;;;;;4985090;28;20046;-77
2022/12/03 07:24:51;;;;;;;29.77;14.80;;;;;;;;;;4958053;28;20546;-77
2022/12/03 07:27:21;;;;;;;25.35;12.98;;;;;;;;;;4989189;28;20168;-76
2022/12/03 07:29:56;;;;;;;8.35;6.22;;;;;;;;;;4959975;28;20081;-77
2022/12/03 07:32:23;;;;;;;21.63;12.18;;;;;;;;;;4958163;28;20051;-76
2022/12/03 07:34:49;;;;;;;32.13;16.65;;;;;;;;;;4936560;28;20132;-76
2022/12/03 07:37:41;;;;;;;31.13;16.38;;;;;;;;;;4973053;28;20033;-76
2022/12/03 07:40:07;;;;;;;26.38;13.40;;;;;;;;;;4988424;28;20506;-75
2022/12/03 07:42:36;;;;;;;18.38;9.68;;;;;;;;;;4991423;28;20438;-75
2022/12/03 07:45:02;;;;;;;38.75;15.30;;;;;;;;;;4975245;28;20076;-76
2022/12/03 07:47:29;;;;;;;47.45;23.67;;;;;;;;;;4957678;28;20057;-76
2022/12/03 07:49:56;;;;;;;17.70;10.32;;;;;;;;;;4974101;28;20418;-76
2022/12/03 07:52:27;;;;;;;30.75;14.70;;;;;;;;;;4993903;28;20042;-75
2022/12/03 07:54:54;;;;;;;25.50;14.60;;;;;;;;;;4977819;28;20065;-76
2022/12/03 07:57:23;;;;;;;26.92;14.02;;;;;;;;;;4962184;28;20046;-76
2022/12/03 07:59:49;;;;;;;21.73;11.15;;;;;;;;;;4978740;28;20049;-76
2022/12/03 08:02:18;;;;;;;17.15;11.07;;;;;;;;;;4963975;28;20148;-77
2022/12/03 08:04:45;;;;;;;20.35;10.13;;;;;;;;;;4980905;28;20422;-77
2022/12/03 08:07:11;;;;;;;20.95;9.63;;;;;;;;;;4964269;28;20077;-75
2022/12/03 08:09:38;;;;;;;29.67;12.73;;;;;;;;;;4979584;28;20045;-76
2022/12/03 08:12:05;;;;;;;25.08;12.18;;;;;;;;;;4970759;28;20042;-76
2022/12/03 08:14:31;;;;;;;26.60;12.55;;;;;;;;;;4960872;28;20134;-76
2022/12/03 08:16:58;;;;;;;16.55;10.80;;;;;;;;;;4944741;28;20054;-76
2022/12/03 08:19:24;;;;;;;19.85;13.13;;;;;;;;;;4944539;28;20081;-76
2022/12/03 08:21:50;;;;;;;20.25;11.13;;;;;;;;;;4944508;28;20038;-76
2022/12/03 08:24:19;;;;;;;21.80;10.27;;;;;;;;;;4960317;28;20042;-76
2022/12/03 08:26:46;;;;;;;41.50;20.40;;;;;;;;;;4992672;28;20062;-76
2022/12/03 08:29:16;;;;;;;26.23;13.73;;;;;;;;;;4944905;28;20049;-76
2022/12/03 08:31:50;;;;;;;24.95;14.15;;;;;;;;;;4993024;28;20084;-77
2022/12/03 08:34:21;;;;;;;20.20;13.57;;;;;;;;;;4976265;28;20100;-76
2022/12/03 08:36:51;;;;;;;24.05;13.05;;;;;;;;;;4943817;28;20046;-76
2022/12/03 08:39:34;;;;;;;23.95;13.38;;;;;;;;;;4959871;28;20074;-76
2022/12/03 08:42:48;;;;;;;31.45;16.58;;;;;;;;;;4960138;28;20088;-76
2022/12/03 08:44:51;;;;;;;46.33;22.25;;;;;;;;;;4969168;28;20050;-75
2022/12/03 08:47:21;;;;;;;23.35;12.20;;;;;;;;;;4945257;28;20578;-76
2022/12/03 08:49:52;;;;;;;18.02;10.73;;;;;;;;;;4992002;28;20042;-76
2022/12/03 08:52:21;;;;;;;37.13;20.30;;;;;;;;;;4976526;28;20046;-76
2022/12/03 08:54:57;;;;;;;28.77;15.23;;;;;;;;;;4962756;28;20046;-76
2022/12/03 08:57:29;;;;;;;16.20;8.35;;;;;;;;;;4992360;28;20065;-76
2022/12/03 09:00:16;;;;;;;12.80;8.55;;;;;;;;;;4993521;28;20042;-76
2022/12/03 09:03:02;;;;;;;17.30;12.50;;;;;;;;;;4959066;28;20427;-76
2022/12/03 09:05:31;;;;;;;26.35;14.05;;;;;;;;;;4968157;28;20125;-76
2022/12/03 09:08:07;;;;;;;17.27;11.00;;;;;;;;;;4983292;28;20050;-76
2022/12/03 09:10:34;;;;;;;25.83;12.70;;;;;;;;;;4958924;28;20196;-76
2022/12/03 09:13:07;;;;;;;39.88;20.55;;;;;;;;;;4976866;28;20041;-77
2022/12/03 09:16:04;;;;;;;20.75;13.13;;;;;;;;;;4998976;28;20076;-78
2022/12/03 09:18:31;;;;;;;36.78;16.58;;;;;;;;;;4976979;28;20105;-79
2022/12/03 09:21:00;;;;;;;41.78;19.55;;;;;;;;;;4980078;28;20176;-79
2022/12/03 09:23:26;;;;;;;26.52;12.35;;;;;;;;;;4975127;28;20140;-79
2022/12/03 09:25:52;;;;;;;22.38;11.77;;;;;;;;;;4948942;28;20034;-79
2022/12/03 09:28:18;;;;;;;17.90;11.52;;;;;;;;;;4994596;28;20172;-79
2022/12/03 09:30:44;;;;;;;30.80;15.02;;;;;;;;;;4955256;28;20037;-77
2022/12/03 09:33:13;;;;;;;24.08;13.18;;;;;;;;;;5011030;28;20548;-79
2022/12/03 09:35:40;;;;;;;33.30;14.85;;;;;;;;;;4971284;28;20501;-79
2022/12/03 09:38:06;;;;;;;38.35;17.52;;;;;;;;;;5014301;28;20046;-78
2022/12/03 09:40:52;;;;;;;19.23;10.00;;;;;;;;;;5010295;28;20049;-77
2022/12/03 09:43:25;;;;;;;37.88;18.52;;;;;;;;;;4993665;28;20107;-79
2022/12/03 09:45:51;;;;;;;39.17;16.30;;;;;;;;;;4969113;28;20034;-78
2022/12/03 09:48:18;;;;;;;41.67;19.58;;;;;;;;;;4958518;28;20058;-78
2022/12/03 09:50:58;;;;;;;38.72;20.77;;;;;;;;;;4972674;28;20129;-77
2022/12/03 09:53:26;;;;;;;26.63;13.82;;;;;;;;;;4995225;28;20053;-77
2022/12/03 09:55:59;;;;;;;25.92;12.07;;;;;;;;;;4977995;28;20030;-77
2022/12/03 09:58:28;;;;;;;34.95;16.83;;;;;;;;;;4990988;28;20073;-76
2022/12/03 10:01:05;;;;;;;27.92;13.70;;;;;;;;;;5006298;28;20030;-77
2022/12/03 10:03:35;;;;;;;42.67;20.55;;;;;;;;;;4975941;28;20034;-76
2022/12/03 10:06:01;;;;;;;23.33;12.90;;;;;;;;;;4970944;28;20034;-77
2022/12/03 10:08:27;;;;;;;56.83;29.58;;;;;;;;;;4971859;28;20050;-77
2022/12/03 10:10:57;;;;;;;19.25;12.57;;;;;;;;;;4968092;28;20128;-77
2022/12/03 10:13:28;;;;;;;26.65;14.68;;;;;;;;;;4944475;28;20493;-76
2022/12/03 10:15:54;;;;;;;28.73;13.60;;;;;;;;;;5009951;28;20042;-77
2022/12/03 10:18:21;;;;;;;43.15;20.20;;;;;;;;;;5010418;28;20033;-77
2022/12/03 10:20:48;;;;;;;52.53;24.80;;;;;;;;;;5014808;28;20033;-77
2022/12/03 10:23:37;;;;;;;;;;;;;;;;;;4995329;28;20073;-78
2022/12/03 10:26:04;;;;;;;30.52;15.75;;;;;;;;;;5012495;28;20021;-78
2022/12/03 10:28:31;;;;;;;23.80;13.27;;;;;;;;;;4996296;28;20056;-77
2022/12/03 10:30:57;;;;;;;25.63;12.18;;;;;;;;;;4961317;28;20057;-77
2022/12/03 10:33:29;;;;;;;49.90;23.25;;;;;;;;;;4991532;28;20042;-76
2022/12/03 10:35:55;;;;;;;38.30;18.92;;;;;;;;;;5008393;28;20037;-76
2022/12/03 10:38:30;;;;;;;24.90;13.90;;;;;;;;;;5008848;28;20180;-76
2022/12/03 10:40:56;;;;;;;49.63;21.98;;;;;;;;;;4976846;28;20038;-75
2022/12/03 10:43:23;;;;;;;33.60;16.17;;;;;;;;;;4976791;28;20071;-76
2022/12/03 10:46:09;;;;;;;25.85;13.95;;;;;;;;;;4976828;28;20088;-76
2022/12/03 10:48:36;;;;;;;41.63;17.00;;;;;;;;;;4987802;28;20085;-76
2022/12/03 10:51:04;;;;;;;31.73;14.77;;;;;;;;;;4960296;28;20042;-78
2022/12/03 10:53:34;;;;;;;24.15;11.52;;;;;;;;;;4992679;28;20112;-76
2022/12/03 10:56:14;;;;;;;43.88;20.10;;;;;;;;;;4962299;28;20042;-76
2022/12/03 10:58:44;;;;;;;29.98;13.60;;;;;;;;;;4983220;28;20122;-76
2022/12/03 11:01:18;;;;;;;17.25;10.50;;;;;;;;;;4988970;28;20463;-76
2022/12/03 11:03:49;;;;;;;27.13;12.82;;;;;;;;;;5005319;28;20061;-78
2022/12/03 11:06:27;;;;;;;51.67;24.35;;;;;;;;;;4952291;28;20577;-77
2022/12/03 11:08:53;;;;;;;27.02;14.93;;;;;;;;;;5009263;28;20537;-77
2022/12/03 11:11:23;;;;;;;40.88;16.65;;;;;;;;;;4996694;28;20037;-77
2022/12/03 11:13:52;;;;;;;27.52;14.77;;;;;;;;;;4980215;28;20069;-76
2022/12/03 11:16:37;;;;;;;54.20;24.48;;;;;;;;;;4993042;28;20048;-76
2022/12/03 11:19:04;;;;;;;36.00;16.25;;;;;;;;;;5003422;28;20520;-76
2022/12/03 11:21:30;;;;;;;31.08;12.45;;;;;;;;;;4985490;28;20042;-76
2022/12/03 11:23:59;;;;;;;25.92;13.85;;;;;;;;;;4987217;28;20466;-76
2022/12/03 11:26:38;;;;;;;46.72;22.30;;;;;;;;;;4973140;28;20049;-76
2022/12/03 11:29:12;;;;;;;27.40;13.50;;;;;;;;;;4955801;28;20153;-75
2022/12/03 11:31:48;;;;;;;13.57;8.73;;;;;;;;;;4989143;28;20133;-76
2022/12/03 11:34:18;;;;;;;46.65;20.40;;;;;;;;;;4989324;28;20259;-75
2022/12/03 11:37:03;;;;;;;30.85;16.33;;;;;;;;;;4987515;28;20041;-75
2022/12/03 11:40:02;;;;;;;30.30;14.90;;;;;;;;;;4974595;28;20105;-75
2022/12/03 11:42:36;;;;;;;13.80;10.05;;;;;;;;;;4991409;28;20510;-77
2022/12/03 11:45:27;;;;;;;27.08;13.82;;;;;;;;;;4957759;28;20090;-76
2022/12/03 11:48:00;;;;;;;30.93;16.63;;;;;;;;;;4973922;28;20836;-77
2022/12/03 11:50:29;;;;;;;20.25;12.48;;;;;;;;;;4974443;28;20387;-76
2022/12/03 11:53:22;;;;;;;25.33;13.73;;;;;;;;;;4992447;28;20237;-78
2022/12/03 11:56:07;;;;;;;13.05;9.82;;;;;;;;;;4974921;28;20034;-77
2022/12/03 11:58:34;;;;;;;20.85;12.23;;;;;;;;;;4977534;28;20041;-75
2022/12/03 12:01:02;;;;;;;31.35;16.98;;;;;;;;;;4988857;28;20143;-75
2022/12/03 12:03:33;;;;;;;38.63;17.15;;;;;;;;;;4988245;28;20064;-75
2022/12/03 12:06:05;;;;;;;36.63;18.13;;;;;;;;;;5002929;28;20541;-75
2022/12/03 12:08:32;;;;;;;36.80;18.35;;;;;;;;;;4957476;28;20042;-77
2022/12/03 12:10:58;;;;;;;19.30;11.32;;;;;;;;;;4979512;28;20042;-78
2022/12/03 12:13:34;;;;;;;25.48;12.50;;;;;;;;;;4971712;28;20109;-78
2022/12/03 12:16:03;;;;;;;32.72;15.75;;;;;;;;;;4984532;28;20038;-78
2022/12/03 12:18:35;;;;;;;27.70;15.27;;;;;;;;;;4970443;28;20042;-79
2022/12/03 12:21:21;;;;;;;22.10;14.07;;;;;;;;;;4952468;28;20063;-79
2022/12/03 12:23:52;;;;;;;20.07;12.23;;;;;;;;;;4989633;28;20068;-78
2022/12/03 12:26:22;;;;;;;15.25;9.75;;;;;;;;;;5006925;28;20117;-78
2022/12/03 12:29:17;;;;;;;10.95;7.82;;;;;;;;;;4994863;28;20577;-79
2022/12/03 12:31:43;;;;;;;20.83;12.43;;;;;;;;;;4942762;28;20038;-78
2022/12/03 12:34:12;;;;;;;16.58;12.75;;;;;;;;;;4959995;28;20350;-79
2022/12/03 12:36:40;;;;;;;15.73;10.52;;;;;;;;;;4961248;28;20215;-79
2022/12/03 12:39:07;;;;;;;27.23;16.92;;;;;;;;;;4995824;28;20562;-80
2022/12/03 12:41:41;;;;;;;10.88;9.55;;;;;;;;;;5006117;28;20046;-79
2022/12/03 12:44:26;;;;;;;12.73;11.40;;;;;;;;;;5010721;28;20564;-79
2022/12/03 12:46:53;;;;;;;13.98;10.10;;;;;;;;;;4968207;28;20100;-79
2022/12/03 12:49:24;;;;;;;8.77;7.97;;;;;;;;;;4960414;28;20034;-79
2022/12/03 12:51:50;;;;;;;11.18;5.68;;;;;;;;;;4954614;28;20156;-78
2022/12/03 12:54:17;;;;;;;9.10;8.10;;;;;;;;;;4961745;28;20142;-78
2022/12/03 12:56:43;;;;;;;9.07;7.57;;;;;;;;;;4978099;28;20072;-79
2022/12/03 12:59:19;;;;;;;6.68;6.07;;;;;;;;;;4973020;28;20082;-79
2022/12/03 13:01:50;;;;;;;10.43;8.18;;;;;;;;;;4966387;28;20581;-79
2022/12/03 13:04:43;;;;;;;8.43;7.63;;;;;;;;;;5003589;28;20471;-79
2022/12/03 13:07:15;;;;;;;10.63;9.55;;;;;;;;;;4938850;28;20133;-79
2022/12/03 13:09:42;;;;;;;13.85;8.43;;;;;;;;;;4980261;28;20556;-79
2022/12/03 13:12:10;;;;;;;6.10;5.50;;;;;;;;;;4936453;28;20034;-79
2022/12/03 13:14:36;;;;;;;6.65;6.00;;;;;;;;;;4952121;28;20046;-79
2022/12/03 13:17:15;;;;;;;9.48;6.18;;;;;;;;;;4953461;28;20141;-79
2022/12/03 13:19:41;;;;;;;7.70;6.72;;;;;;;;;;4956181;28;20312;-79
2022/12/03 13:22:26;;;;;;;10.90;8.43;;;;;;;;;;4984741;28;20517;-79
2022/12/03 13:24:53;;;;;;;9.63;8.48;;;;;;;;;;4953033;28;20391;-79
2022/12/03 13:27:31;;;;;;;20.27;12.35;;;;;;;;;;4934553;28;20100;-79
2022/12/03 13:30:01;;;;;;;13.80;8.73;;;;;;;;;;4979472;28;20089;-79
2022/12/03 13:32:35;;;;;;;10.10;8.88;;;;;;;;;;4929414;29;20091;-79
2022/12/03 13:35:25;;;;;;;11.45;9.05;;;;;;;;;;4938776;28;20077;-80
2022/12/03 13:37:52;;;;;;;8.55;7.78;;;;;;;;;;4948176;28;20450;-80
2022/12/03 13:40:18;;;;;;;7.82;7.07;;;;;;;;;;4999983;28;20145;-79
2022/12/03 13:42:47;;;;;;;19.75;8.90;;;;;;;;;;4985652;28;20042;-79
2022/12/03 13:45:34;;;;;;;17.23;12.50;;;;;;;;;;5000624;28;20097;-79
2022/12/03 13:48:01;;;;;;;13.27;11.07;;;;;;;;;;4945749;28;20046;-80
2022/12/03 13:50:32;;;;;;;10.48;8.38;;;;;;;;;;5003160;28;20053;-79
2022/12/03 13:53:07;;;;;;;13.15;10.95;;;;;;;;;;4951576;28;20037;-79
2022/12/03 13:56:01;;;;;;;6.88;6.18;;;;;;;;;;4977020;28;20490;-79
2022/12/03 13:58:28;;;;;;;19.05;9.98;;;;;;;;;;4957745;28;20429;-80
2022/12/03 14:00:54;;;;;;;8.75;7.32;;;;;;;;;;4960964;28;20046;-79
2022/12/03 14:03:22;;;;;;;11.05;9.60;;;;;;;;;;5013296;28;20526;-79
2022/12/03 14:05:48;;;;;;;3.92;3.60;;;;;;;;;;4997914;28;20041;-79
2022/12/03 14:08:20;;;;;;;10.23;8.25;;;;;;;;;;5031689;28;20488;-79
2022/12/03 14:10:47;;;;;;;8.18;7.22;;;;;;;;;;4981260;28;20044;-79
2022/12/03 14:13:15;;;;;;;9.35;8.25;;;;;;;;;;4982016;28;20152;-80
2022/12/03 14:15:43;;;;;;;15.55;11.68;;;;;;;;;;4981497;28;20068;-80
2022/12/03 14:18:34;;;;;;;13.15;9.57;;;;;;;;;;4988708;28;20044;-80
2022/12/03 14:21:10;;;;;;;8.50;7.10;;;;;;;;;;4999522;28;20156;-79
2022/12/03 14:23:41;;;;;;;9.68;8.38;;;;;;;;;;4983108;28;20044;-80
2022/12/03 14:26:09;;;;;;;16.92;11.60;;;;;;;;;;5013796;28;20127;-80
2022/12/03 14:28:50;;;;;;;31.48;14.05;;;;;;;;;;5031889;28;20049;-80
2022/12/03 14:31:17;;;;;;;10.15;8.90;;;;;;;;;;5015008;28;20048;-80
2022/12/03 14:33:45;;;;;;;15.27;10.60;;;;;;;;;;4982988;28;20051;-78
2022/12/03 14:36:11;;;;;;;16.50;10.70;;;;;;;;;;4982015;28;20037;-81
2022/12/03 14:38:37;;;;;;;13.65;8.18;;;;;;;;;;4981960;28;20445;-81
2022/12/03 14:44:01;;;;;;;12.82;10.15;;;;;;;;;;5013622;28;20440;-80
2022/12/03 14:49:50;;;;;;;10.05;8.10;;;;;;;;;;5007938;28;20037;-80
2022/12/03 14:52:16;;;;;;;16.95;10.32;;;;;;;;;;5014559;28;20123;-80
2022/12/03 14:54:43;;;;;;;11.13;7.90;;;;;;;;;;5000036;28;20136;-79
2022/12/03 14:57:10;;;;;;;19.00;11.27;;;;;;;;;;4966796;28;20501;-79
2022/12/03 14:59:49;;;;;;;16.77;9.88;;;;;;;;;;4997285;28;20073;-79
2022/12/03 15:02:16;;;;;;;21.33;14.55;;;;;;;;;;5016065;28;20529;-80
2022/12/03 15:05:03;;;;;;;24.52;16.85;;;;;;;;;;5010365;28;20057;-80
2022/12/03 15:07:30;;;;;;;17.92;12.18;;;;;;;;;;4977448;28;20153;-80
2022/12/03 15:10:07;;;;;;;28.42;17.38;;;;;;;;;;4993401;28;20053;-80
2022/12/03 15:12:33;;;;;;;22.85;15.68;;;;;;;;;;4993280;28;20045;-79